Marshall Army Air Field
KFRI : now visible

Airfield :











YOU CAN JOIN US ON...

 
LOGIN :

Register | Disclaimer

   EN    FR    IT 

 









Legend :    VFR   Marginal VFR   IFR   Intensive IFR   Very Intensive IFR
Visi :
Ceiling :
>= 8 km
>= 3000ft
5 to 8 km
1000 to 3000 ft
1500m to 5 km
500 to 1000 ft
800 to 1500m
200 to 500 ft
< 800m
< 200 ft
Symbols :   Thunderstorms  Fog  Heavy snow  Heavy precipitations  Wind > 20 kt






- Airport Elevation : 1065 ft


KFRI - Marshall Army Air Field

CURRENT METAR :
  • 031356Z AUTO 00000KT 10SM CLR 18/16 A3016 RMK AO2 SLP206 T01830163

EXPIRED METARs :
  • 031256Z AUTO 00000KT 10SM CLR 16/15 A3015 RMK AO2 SLP203 T01600152
  • 031156Z AUTO 05003KT 10SM CLR 14/13 A3014 RMK AO2 SLP199 T01400129 10166 20140 53006

TAF TAF KFRI
Valid from the 03 at 13:00 until the 04 at 19:00 UTC


031300Z 0313/0419 VRB06KT 9999 SCT055 QNH3010INS TX27/0319Z TN14/0313Z
KZKC FIR / North America



MET'MAP, your aeronautical weather chart ! - Copyright ORBIFLY December 2007 - Disclaimer

ORBIFLY MET'MAP TEAM :

Programming & Development : Alexandra Zaïnal
Concept & original design : Baudouin d'Aumeries
Assistance for programming : Marc-Olivier Méhu
Technical & hardware support : Manuel Goepfert

Contact : metmap@orbifly.com




SOURCES & CREDITS :

   NOAA       Earth
Advisory